PDA6124 UKWW-LMML
Flight info
| Callsign | PDA6124 |
|---|---|
| Flight time | 2h 27m |
| Altitude | 36000 |
| Route | TAKET DCT AKLEF/N0430F360 DCT TIDGA DCT DIRER DCT YUYUH DCT BEVIS/N0441F370 DCT SIRGI DCT RCA DCT OLLEK |
| Aircraft | A320/M-VD/A |
Departure
| Time | 2026-04-23 10:57 |
|---|---|
| Airport | Vinnytsia/Gavyryshivka International Airport (UKWW) |
Arrival
| Time | 2026-04-23 13:24 |
|---|---|
| Airport | Malta International Airport (LMML) |
| Time | Latitude | Longitude | Altitude | Speed | Heading |
|---|---|---|---|---|---|
| 2026-04-23 10:48 | 49.24370 | 28.60652 | 976 ft | 0 kts | 229° |
| 2026-04-23 10:52 | 49.24366 | 28.60645 | 980 ft | 3 kts | 228° |
| 2026-04-23 10:53 | 49.24336 | 28.60636 | 973 ft | 6 kts | 160° |
| 2026-04-23 10:53 | 49.24296 | 28.60700 | 975 ft | 10 kts | 103° |
| 2026-04-23 10:53 | 49.24345 | 28.60796 | 976 ft | 14 kts | 47° |
| 2026-04-23 10:53 | 49.24421 | 28.60926 | 977 ft | 19 kts | 49° |
| 2026-04-23 10:54 | 49.24455 | 28.61104 | 980 ft | 21 kts | 131° |
| 2026-04-23 10:54 | 49.24341 | 28.61266 | 977 ft | 24 kts | 138° |
| 2026-04-23 10:54 | 49.24203 | 28.61449 | 977 ft | 28 kts | 136° |
| 2026-04-23 10:54 | 49.24045 | 28.61668 | 967 ft | 33 kts | 138° |
| 2026-04-23 10:55 | 49.23863 | 28.61916 | 971 ft | 36 kts | 137° |
| 2026-04-23 10:55 | 49.23677 | 28.62173 | 977 ft | 36 kts | 139° |
| 2026-04-23 10:55 | 49.23513 | 28.62382 | 979 ft | 25 kts | 143° |
| 2026-04-23 10:55 | 49.23447 | 28.62465 | 968 ft | 3 kts | 70° |
| 2026-04-23 10:56 | 49.23455 | 28.62457 | 968 ft | 1 kts | 321° |
| 2026-04-23 10:56 | 49.23537 | 28.62351 | 978 ft | 45 kts | 319° |
| 2026-04-23 10:56 | 49.23918 | 28.61830 | 968 ft | 100 kts | 318° |
| 2026-04-23 10:56 | 49.24548 | 28.60982 | 1005 ft | 137 kts | 319° |
| 2026-04-23 10:57 | 49.25246 | 28.60038 | 1660 ft | 132 kts | 319° |
| 2026-04-23 10:57 | 49.25952 | 28.59120 | 2254 ft | 137 kts | 321° |
| 2026-04-23 10:57 | 49.26743 | 28.58149 | 2535 ft | 157 kts | 322° |
| 2026-04-23 10:57 | 49.27717 | 28.57189 | 2864 ft | 180 kts | 341° |
| 2026-04-23 10:58 | 49.29061 | 28.57316 | 3254 ft | 215 kts | 17° |
| 2026-04-23 10:58 | 49.30289 | 28.58956 | 3675 ft | 257 kts | 54° |
| 2026-04-23 10:58 | 49.30710 | 28.61681 | 4413 ft | 284 kts | 88° |
| 2026-04-23 10:58 | 49.30061 | 28.64607 | 5221 ft | 301 kts | 122° |
| 2026-04-23 10:59 | 49.28481 | 28.66709 | 6112 ft | 305 kts | 156° |
| 2026-04-23 10:59 | 49.26436 | 28.67407 | 6907 ft | 304 kts | 184° |
| 2026-04-23 10:59 | 49.24323 | 28.67307 | 7738 ft | 305 kts | 188° |
| 2026-04-23 10:59 | 49.22318 | 28.66459 | 8495 ft | 297 kts | 218° |
| 2026-04-23 11:00 | 49.20739 | 28.64488 | 9296 ft | 290 kts | 234° |
| 2026-04-23 11:00 | 49.19564 | 28.62033 | 10009 ft | 285 kts | 250° |
| 2026-04-23 11:00 | 49.18631 | 28.59274 | 10350 ft | 302 kts | 252° |
| 2026-04-23 11:00 | 49.17717 | 28.56257 | 10613 ft | 321 kts | 253° |
| 2026-04-23 11:01 | 49.16809 | 28.53099 | 11203 ft | 327 kts | 254° |
| 2026-04-23 11:01 | 49.15906 | 28.49892 | 11860 ft | 331 kts | 255° |
| 2026-04-23 11:01 | 49.14992 | 28.46632 | 12493 ft | 336 kts | 255° |
| 2026-04-23 11:01 | 49.14064 | 28.43326 | 13121 ft | 341 kts | 255° |
| 2026-04-23 11:02 | 49.13118 | 28.39975 | 13735 ft | 346 kts | 255° |
| 2026-04-23 11:02 | 49.12153 | 28.36576 | 14291 ft | 350 kts | 255° |
| 2026-04-23 11:02 | 49.11176 | 28.33153 | 14830 ft | 355 kts | 256° |
| 2026-04-23 11:02 | 49.10192 | 28.29720 | 15370 ft | 359 kts | 256° |
| 2026-04-23 11:03 | 49.09182 | 28.26203 | 15916 ft | 363 kts | 256° |
| 2026-04-23 11:03 | 49.08161 | 28.22647 | 16466 ft | 368 kts | 257° |
| 2026-04-23 11:03 | 49.07125 | 28.19052 | 17013 ft | 372 kts | 257° |
| 2026-04-23 11:03 | 49.06077 | 28.15415 | 17559 ft | 377 kts | 257° |
| 2026-04-23 11:04 | 49.05373 | 28.12976 | 17919 ft | 380 kts | 257° |
| 2026-04-23 11:04 | 49.04301 | 28.09269 | 18402 ft | 384 kts | 258° |
| 2026-04-23 11:04 | 49.02863 | 28.04296 | 19064 ft | 388 kts | 258° |
| 2026-04-23 11:04 | 49.02126 | 28.01750 | 19369 ft | 390 kts | 257° |
| 2026-04-23 11:05 | 49.00667 | 27.96722 | 20052 ft | 394 kts | 257° |
| 2026-04-23 11:05 | 48.99914 | 27.94128 | 20384 ft | 396 kts | 257° |
| 2026-04-23 11:05 | 48.98796 | 27.90275 | 20851 ft | 399 kts | 257° |
| 2026-04-23 11:05 | 48.97662 | 27.86384 | 21256 ft | 403 kts | 257° |
| 2026-04-23 11:06 | 48.94799 | 27.78856 | 22146 ft | 421 kts | 248° |
| 2026-04-23 11:06 | 48.93195 | 27.75040 | 22595 ft | 424 kts | 248° |
| 2026-04-23 11:06 | 48.91620 | 27.71290 | 23031 ft | 427 kts | 248° |
| 2026-04-23 11:07 | 48.90016 | 27.67467 | 23460 ft | 430 kts | 248° |
| 2026-04-23 11:07 | 48.88404 | 27.63619 | 23832 ft | 433 kts | 248° |
| 2026-04-23 11:07 | 48.86779 | 27.59746 | 24198 ft | 435 kts | 247° |
| 2026-04-23 11:07 | 48.85139 | 27.55843 | 24578 ft | 438 kts | 247° |
| 2026-04-23 11:08 | 48.83494 | 27.51938 | 24950 ft | 440 kts | 247° |
| 2026-04-23 11:08 | 48.81838 | 27.48010 | 25334 ft | 443 kts | 247° |
| 2026-04-23 11:08 | 48.80167 | 27.44061 | 25700 ft | 446 kts | 246° |
| 2026-04-23 11:08 | 48.78485 | 27.40098 | 26074 ft | 448 kts | 246° |
| 2026-04-23 11:09 | 48.76792 | 27.36111 | 26440 ft | 450 kts | 246° |
| 2026-04-23 11:09 | 48.75111 | 27.32155 | 26799 ft | 453 kts | 246° |
| 2026-04-23 11:09 | 48.73401 | 27.28132 | 27143 ft | 455 kts | 246° |
| 2026-04-23 11:09 | 48.71680 | 27.24092 | 27455 ft | 458 kts | 246° |
| 2026-04-23 11:10 | 48.69947 | 27.20026 | 27818 ft | 460 kts | 246° |
| 2026-04-23 11:10 | 48.68204 | 27.15940 | 28168 ft | 463 kts | 246° |
| 2026-04-23 11:10 | 48.66448 | 27.11838 | 28514 ft | 465 kts | 246° |
| 2026-04-23 11:10 | 48.64682 | 27.07720 | 28853 ft | 468 kts | 245° |
| 2026-04-23 11:11 | 48.62906 | 27.03579 | 29194 ft | 470 kts | 246° |
| 2026-04-23 11:11 | 48.61121 | 26.99420 | 29534 ft | 473 kts | 245° |
| 2026-04-23 11:11 | 48.59317 | 26.95235 | 29854 ft | 475 kts | 245° |
| 2026-04-23 11:11 | 48.57504 | 26.91043 | 30138 ft | 477 kts | 244° |
| 2026-04-23 11:12 | 48.55684 | 26.86839 | 30414 ft | 479 kts | 244° |
| 2026-04-23 11:12 | 48.53862 | 26.82634 | 30795 ft | 479 kts | 244° |
| 2026-04-23 11:12 | 48.52034 | 26.78422 | 31192 ft | 479 kts | 244° |
| 2026-04-23 11:12 | 48.50231 | 26.74267 | 31574 ft | 479 kts | 244° |
| 2026-04-23 11:13 | 48.48402 | 26.70060 | 31962 ft | 479 kts | 244° |
| 2026-04-23 11:13 | 48.46577 | 26.65865 | 32356 ft | 479 kts | 244° |
| 2026-04-23 11:13 | 48.44743 | 26.61653 | 32750 ft | 479 kts | 244° |
| 2026-04-23 11:13 | 48.42914 | 26.57464 | 33148 ft | 479 kts | 244° |
| 2026-04-23 11:14 | 48.41080 | 26.53273 | 33501 ft | 479 kts | 244° |
| 2026-04-23 11:14 | 48.39240 | 26.49075 | 33867 ft | 480 kts | 244° |
| 2026-04-23 11:14 | 48.37424 | 26.44936 | 34188 ft | 479 kts | 244° |
| 2026-04-23 11:14 | 48.35565 | 26.40711 | 34545 ft | 478 kts | 243° |
| 2026-04-23 11:15 | 48.33752 | 26.36595 | 34885 ft | 477 kts | 243° |
| 2026-04-23 11:15 | 48.31925 | 26.32450 | 35239 ft | 475 kts | 243° |
| 2026-04-23 11:15 | 48.30098 | 26.28310 | 35594 ft | 473 kts | 243° |
| 2026-04-23 11:15 | 48.28274 | 26.24183 | 35796 ft | 473 kts | 242° |
| 2026-04-23 11:16 | 48.26451 | 26.20058 | 35823 ft | 473 kts | 242° |
| 2026-04-23 11:16 | 48.22802 | 26.11821 | 35835 ft | 473 kts | 242° |
| 2026-04-23 11:17 | 48.19168 | 26.03653 | 35834 ft | 473 kts | 242° |
| 2026-04-23 11:17 | 48.15497 | 25.95456 | 35843 ft | 473 kts | 242° |
| 2026-04-23 11:18 | 48.11833 | 25.87270 | 35844 ft | 473 kts | 242° |
| 2026-04-23 11:18 | 48.08165 | 25.79078 | 35847 ft | 474 kts | 242° |
| 2026-04-23 11:19 | 48.04480 | 25.70887 | 35851 ft | 474 kts | 242° |
| 2026-04-23 11:19 | 48.00781 | 25.62715 | 35864 ft | 474 kts | 242° |
| 2026-04-23 11:20 | 47.97104 | 25.54601 | 35872 ft | 475 kts | 242° |
| 2026-04-23 11:20 | 47.93391 | 25.46441 | 35858 ft | 475 kts | 239° |
| 2026-04-23 11:21 | 47.89014 | 25.38938 | 35869 ft | 480 kts | 232° |
| 2026-04-23 11:21 | 47.84487 | 25.31612 | 35873 ft | 481 kts | 232° |
| 2026-04-23 11:22 | 47.79967 | 25.24277 | 35872 ft | 480 kts | 232° |
| 2026-04-23 11:22 | 47.75438 | 25.16948 | 35873 ft | 481 kts | 231° |
| 2026-04-23 11:23 | 47.70922 | 25.09674 | 35874 ft | 482 kts | 231° |
| 2026-04-23 11:23 | 47.66360 | 25.02355 | 35898 ft | 482 kts | 231° |
| 2026-04-23 11:24 | 47.61797 | 24.95070 | 35903 ft | 482 kts | 231° |
| 2026-04-23 11:24 | 47.57220 | 24.87776 | 35919 ft | 482 kts | 231° |
| 2026-04-23 11:25 | 47.52660 | 24.80491 | 35929 ft | 482 kts | 231° |
| 2026-04-23 11:25 | 47.48118 | 24.73269 | 35945 ft | 482 kts | 231° |
| 2026-04-23 11:26 | 47.43531 | 24.66026 | 35938 ft | 482 kts | 230° |
| 2026-04-23 11:26 | 47.38954 | 24.58802 | 35954 ft | 482 kts | 230° |
| 2026-04-23 11:27 | 47.34370 | 24.51583 | 35954 ft | 481 kts | 230° |
| 2026-04-23 11:27 | 47.29783 | 24.44379 | 35950 ft | 481 kts | 230° |
| 2026-04-23 11:28 | 47.25198 | 24.37201 | 35960 ft | 481 kts | 230° |
| 2026-04-23 11:28 | 47.20611 | 24.30028 | 35971 ft | 481 kts | 230° |
| 2026-04-23 11:29 | 47.16048 | 24.22915 | 35976 ft | 481 kts | 230° |
| 2026-04-23 11:29 | 47.11438 | 24.15757 | 35973 ft | 481 kts | 229° |
| 2026-04-23 11:30 | 47.06832 | 24.08624 | 35967 ft | 481 kts | 229° |
| 2026-04-23 11:30 | 47.02218 | 24.01484 | 35981 ft | 481 kts | 229° |
| 2026-04-23 11:31 | 46.97603 | 23.94374 | 35988 ft | 481 kts | 229° |
| 2026-04-23 11:31 | 46.92985 | 23.87281 | 35989 ft | 481 kts | 229° |
| 2026-04-23 11:32 | 46.88389 | 23.80230 | 35991 ft | 481 kts | 229° |
| 2026-04-23 11:32 | 46.83761 | 23.73157 | 35990 ft | 481 kts | 229° |
| 2026-04-23 11:33 | 46.79125 | 23.66091 | 35985 ft | 481 kts | 228° |
| 2026-04-23 11:33 | 46.74496 | 23.59048 | 35992 ft | 481 kts | 228° |
| 2026-04-23 11:34 | 46.69861 | 23.52026 | 35999 ft | 480 kts | 228° |
| 2026-04-23 11:34 | 46.65227 | 23.45018 | 36007 ft | 480 kts | 228° |
| 2026-04-23 11:35 | 46.60587 | 23.38027 | 36021 ft | 480 kts | 227° |
| 2026-04-23 11:35 | 46.55948 | 23.31044 | 36025 ft | 480 kts | 228° |
| 2026-04-23 11:36 | 46.51309 | 23.24073 | 36026 ft | 479 kts | 227° |
| 2026-04-23 11:36 | 46.46658 | 23.17118 | 36026 ft | 479 kts | 227° |
| 2026-04-23 11:37 | 46.42039 | 23.10227 | 36031 ft | 479 kts | 227° |
| 2026-04-23 11:37 | 46.37187 | 23.03590 | 36024 ft | 480 kts | 221° |
| 2026-04-23 11:38 | 46.32061 | 22.97364 | 36043 ft | 480 kts | 221° |
| 2026-04-23 11:38 | 46.26936 | 22.91159 | 36043 ft | 480 kts | 221° |
| 2026-04-23 11:39 | 46.21830 | 22.84995 | 36052 ft | 480 kts | 220° |
| 2026-04-23 11:39 | 46.16705 | 22.78828 | 36053 ft | 479 kts | 220° |
| 2026-04-23 11:40 | 46.11578 | 22.72677 | 36050 ft | 479 kts | 220° |
| 2026-04-23 11:40 | 46.06450 | 22.66524 | 36058 ft | 479 kts | 220° |
| 2026-04-23 11:41 | 46.01361 | 22.60436 | 36066 ft | 478 kts | 220° |
| 2026-04-23 11:41 | 45.96227 | 22.54313 | 36065 ft | 478 kts | 220° |
| 2026-04-23 11:42 | 45.91089 | 22.48212 | 36072 ft | 478 kts | 220° |
| 2026-04-23 11:42 | 45.85951 | 22.42128 | 36077 ft | 478 kts | 220° |
| 2026-04-23 11:43 | 45.80819 | 22.36052 | 36078 ft | 478 kts | 220° |
| 2026-04-23 11:43 | 45.75684 | 22.29972 | 36077 ft | 478 kts | 220° |
| 2026-04-23 11:44 | 45.70571 | 22.23951 | 36078 ft | 479 kts | 220° |
| 2026-04-23 11:44 | 45.65418 | 22.17909 | 36082 ft | 479 kts | 220° |
| 2026-04-23 11:45 | 45.60265 | 22.11870 | 36085 ft | 479 kts | 220° |
| 2026-04-23 11:45 | 45.55980 | 22.06851 | 36082 ft | 479 kts | 220° |
| 2026-04-23 11:46 | 45.50815 | 22.00821 | 36084 ft | 480 kts | 220° |
| 2026-04-23 11:46 | 45.45637 | 21.94801 | 36090 ft | 480 kts | 220° |
| 2026-04-23 11:47 | 45.40497 | 21.88830 | 36091 ft | 480 kts | 219° |
| 2026-04-23 11:47 | 45.35324 | 21.82836 | 36092 ft | 480 kts | 219° |
| 2026-04-23 11:48 | 45.30139 | 21.76842 | 36092 ft | 480 kts | 219° |
| 2026-04-23 11:48 | 45.24961 | 21.70871 | 36095 ft | 479 kts | 219° |
| 2026-04-23 11:49 | 45.19776 | 21.64910 | 36094 ft | 479 kts | 219° |
| 2026-04-23 11:49 | 45.14608 | 21.58991 | 36114 ft | 479 kts | 219° |
| 2026-04-23 11:50 | 45.09419 | 21.53055 | 36104 ft | 479 kts | 218° |
| 2026-04-23 11:50 | 45.04226 | 21.47126 | 36104 ft | 479 kts | 218° |
| 2026-04-23 11:51 | 44.99037 | 21.41224 | 36108 ft | 479 kts | 218° |
| 2026-04-23 11:51 | 44.93764 | 21.35484 | 36115 ft | 478 kts | 216° |
| 2026-04-23 11:52 | 44.88391 | 21.29929 | 36112 ft | 479 kts | 215° |
| 2026-04-23 11:52 | 44.83042 | 21.24437 | 36113 ft | 479 kts | 215° |
| 2026-04-23 11:53 | 44.77680 | 21.18862 | 36110 ft | 479 kts | 216° |
| 2026-04-23 11:53 | 44.72327 | 21.13263 | 36112 ft | 479 kts | 216° |
| 2026-04-23 11:54 | 44.66964 | 21.07684 | 36111 ft | 479 kts | 216° |
| 2026-04-23 11:54 | 44.61616 | 21.02146 | 36114 ft | 479 kts | 216° |
| 2026-04-23 11:55 | 44.56242 | 20.96587 | 36120 ft | 479 kts | 215° |
| 2026-04-23 11:55 | 44.50868 | 20.91048 | 36120 ft | 480 kts | 215° |
| 2026-04-23 11:56 | 44.45486 | 20.85510 | 36119 ft | 480 kts | 215° |
| 2026-04-23 11:56 | 44.40097 | 20.79978 | 36124 ft | 480 kts | 215° |
| 2026-04-23 11:57 | 44.34711 | 20.74456 | 36126 ft | 480 kts | 215° |
| 2026-04-23 11:57 | 44.29320 | 20.68953 | 36126 ft | 481 kts | 215° |
| 2026-04-23 11:58 | 44.23903 | 20.63444 | 36133 ft | 481 kts | 214° |
| 2026-04-23 11:58 | 44.18497 | 20.57941 | 36134 ft | 481 kts | 214° |
| 2026-04-23 11:59 | 44.13095 | 20.52456 | 36134 ft | 481 kts | 214° |
| 2026-04-23 11:59 | 44.07721 | 20.47018 | 36139 ft | 480 kts | 214° |
| 2026-04-23 12:00 | 44.02310 | 20.41556 | 36135 ft | 480 kts | 214° |
| 2026-04-23 12:00 | 43.96893 | 20.36099 | 36133 ft | 480 kts | 214° |
| 2026-04-23 12:01 | 43.91474 | 20.30658 | 36143 ft | 480 kts | 214° |
| 2026-04-23 12:01 | 43.86050 | 20.25213 | 36135 ft | 480 kts | 214° |
| 2026-04-23 12:02 | 43.80635 | 20.19799 | 36111 ft | 480 kts | 214° |
| 2026-04-23 12:02 | 43.75238 | 20.14412 | 36130 ft | 480 kts | 213° |
| 2026-04-23 12:03 | 43.69816 | 20.09009 | 36137 ft | 481 kts | 213° |
| 2026-04-23 12:03 | 43.64388 | 20.03616 | 36136 ft | 481 kts | 213° |
| 2026-04-23 12:04 | 43.58959 | 19.98238 | 36137 ft | 480 kts | 213° |
| 2026-04-23 12:04 | 43.53532 | 19.92870 | 36135 ft | 480 kts | 213° |
| 2026-04-23 12:05 | 43.48095 | 19.87503 | 36137 ft | 480 kts | 213° |
| 2026-04-23 12:05 | 43.42664 | 19.82150 | 36144 ft | 480 kts | 213° |
| 2026-04-23 12:06 | 43.37229 | 19.76805 | 36135 ft | 480 kts | 213° |
| 2026-04-23 12:06 | 43.29086 | 19.68834 | 36134 ft | 479 kts | 213° |
| 2026-04-23 12:07 | 43.23647 | 19.63522 | 36145 ft | 480 kts | 214° |
| 2026-04-23 12:07 | 43.18397 | 19.57851 | 36137 ft | 481 kts | 218° |
| 2026-04-23 12:08 | 43.13316 | 19.51875 | 36133 ft | 482 kts | 219° |
| 2026-04-23 12:08 | 43.08206 | 19.45921 | 36121 ft | 481 kts | 218° |
| 2026-04-23 12:09 | 43.03042 | 19.40099 | 36118 ft | 482 kts | 217° |
| 2026-04-23 12:09 | 42.97867 | 19.34335 | 36117 ft | 482 kts | 217° |
| 2026-04-23 12:10 | 42.92668 | 19.28523 | 36125 ft | 482 kts | 217° |
| 2026-04-23 12:10 | 42.87467 | 19.22704 | 36120 ft | 482 kts | 217° |
| 2026-04-23 12:11 | 42.82272 | 19.16894 | 36109 ft | 482 kts | 217° |
| 2026-04-23 12:11 | 42.77090 | 19.11109 | 36104 ft | 481 kts | 217° |
| 2026-04-23 12:12 | 42.71941 | 19.05372 | 36112 ft | 480 kts | 217° |
| 2026-04-23 12:12 | 42.66774 | 18.99643 | 36104 ft | 478 kts | 217° |
| 2026-04-23 12:13 | 42.61615 | 18.93933 | 36106 ft | 478 kts | 217° |
| 2026-04-23 12:13 | 42.56463 | 18.88243 | 36093 ft | 477 kts | 217° |
| 2026-04-23 12:14 | 42.51308 | 18.82569 | 36086 ft | 477 kts | 217° |
| 2026-04-23 12:14 | 42.46154 | 18.76906 | 36076 ft | 476 kts | 217° |
| 2026-04-23 12:15 | 42.41003 | 18.71251 | 36098 ft | 477 kts | 217° |
| 2026-04-23 12:15 | 42.35868 | 18.65617 | 36097 ft | 478 kts | 217° |
| 2026-04-23 12:16 | 42.30696 | 18.59971 | 36096 ft | 478 kts | 217° |
| 2026-04-23 12:16 | 42.25506 | 18.54318 | 36110 ft | 478 kts | 218° |
| 2026-04-23 12:17 | 42.20327 | 18.48673 | 36108 ft | 478 kts | 218° |
| 2026-04-23 12:17 | 42.15153 | 18.43053 | 36111 ft | 478 kts | 217° |
| 2026-04-23 12:18 | 42.09993 | 18.37480 | 36114 ft | 477 kts | 218° |
| 2026-04-23 12:18 | 42.04820 | 18.31889 | 36123 ft | 476 kts | 218° |
| 2026-04-23 12:19 | 41.99658 | 18.26317 | 36127 ft | 475 kts | 218° |
| 2026-04-23 12:19 | 41.94503 | 18.20767 | 36133 ft | 474 kts | 218° |
| 2026-04-23 12:20 | 41.89041 | 18.15826 | 36134 ft | 472 kts | 211° |
| 2026-04-23 12:20 | 41.83494 | 18.11109 | 36128 ft | 471 kts | 212° |
| 2026-04-23 12:21 | 41.77999 | 18.06423 | 36136 ft | 471 kts | 212° |
| 2026-04-23 12:21 | 41.72469 | 18.01728 | 36139 ft | 470 kts | 212° |
| 2026-04-23 12:22 | 41.66943 | 17.97056 | 36135 ft | 469 kts | 212° |
| 2026-04-23 12:22 | 41.61423 | 17.92394 | 36134 ft | 468 kts | 212° |
| 2026-04-23 12:23 | 41.55913 | 17.87738 | 36142 ft | 467 kts | 213° |
| 2026-04-23 12:23 | 41.50414 | 17.83095 | 36140 ft | 467 kts | 213° |
| 2026-04-23 12:24 | 41.44925 | 17.78478 | 36139 ft | 466 kts | 212° |
| 2026-04-23 12:24 | 41.39463 | 17.73896 | 36127 ft | 466 kts | 212° |
| 2026-04-23 12:25 | 41.33967 | 17.69296 | 36124 ft | 466 kts | 212° |
| 2026-04-23 12:25 | 41.28475 | 17.64706 | 36126 ft | 466 kts | 212° |
| 2026-04-23 12:26 | 41.22982 | 17.60129 | 36135 ft | 466 kts | 213° |
| 2026-04-23 12:26 | 41.17480 | 17.55553 | 36140 ft | 466 kts | 213° |
| 2026-04-23 12:27 | 41.12033 | 17.51026 | 36138 ft | 465 kts | 213° |
| 2026-04-23 12:27 | 41.06550 | 17.46482 | 36139 ft | 465 kts | 213° |
| 2026-04-23 12:28 | 41.01068 | 17.41952 | 36145 ft | 463 kts | 213° |
| 2026-04-23 12:28 | 40.95599 | 17.37430 | 36130 ft | 463 kts | 213° |
| 2026-04-23 12:29 | 40.90134 | 17.32924 | 36127 ft | 463 kts | 213° |
| 2026-04-23 12:29 | 40.85580 | 17.29186 | 36131 ft | 463 kts | 214° |
| 2026-04-23 12:30 | 40.80095 | 17.24685 | 36130 ft | 463 kts | 214° |
| 2026-04-23 12:30 | 40.74626 | 17.20202 | 36127 ft | 463 kts | 213° |
| 2026-04-23 12:31 | 40.69146 | 17.15727 | 36129 ft | 463 kts | 214° |
| 2026-04-23 12:31 | 40.63685 | 17.11277 | 36136 ft | 461 kts | 214° |
| 2026-04-23 12:32 | 40.58237 | 17.06832 | 36135 ft | 460 kts | 214° |
| 2026-04-23 12:32 | 40.52784 | 17.02404 | 36120 ft | 460 kts | 214° |
| 2026-04-23 12:33 | 40.47335 | 16.97989 | 36119 ft | 459 kts | 214° |
| 2026-04-23 12:33 | 40.41934 | 16.93620 | 36121 ft | 459 kts | 214° |
| 2026-04-23 12:34 | 40.36500 | 16.89224 | 36127 ft | 458 kts | 214° |
| 2026-04-23 12:34 | 40.31078 | 16.84841 | 36097 ft | 458 kts | 215° |
| 2026-04-23 12:35 | 40.25658 | 16.80475 | 36113 ft | 456 kts | 215° |
| 2026-04-23 12:35 | 40.20250 | 16.76135 | 36117 ft | 455 kts | 215° |
| 2026-04-23 12:36 | 40.14857 | 16.71810 | 36117 ft | 454 kts | 215° |
| 2026-04-23 12:36 | 40.09118 | 16.68271 | 36105 ft | 458 kts | 206° |
| 2026-04-23 12:37 | 40.03222 | 16.65149 | 36109 ft | 457 kts | 206° |
| 2026-04-23 12:37 | 39.97329 | 16.62035 | 36120 ft | 457 kts | 206° |
| 2026-04-23 12:38 | 39.91438 | 16.58917 | 36106 ft | 457 kts | 206° |
| 2026-04-23 12:38 | 39.85557 | 16.55800 | 36100 ft | 456 kts | 206° |
| 2026-04-23 12:39 | 39.79680 | 16.52706 | 36109 ft | 455 kts | 206° |
| 2026-04-23 12:39 | 39.73808 | 16.49618 | 36115 ft | 455 kts | 206° |
| 2026-04-23 12:40 | 39.67934 | 16.46530 | 36100 ft | 455 kts | 207° |
| 2026-04-23 12:40 | 39.62072 | 16.43458 | 36106 ft | 454 kts | 207° |
| 2026-04-23 12:41 | 39.56207 | 16.40401 | 36098 ft | 454 kts | 206° |
| 2026-04-23 12:41 | 39.50382 | 16.37364 | 36094 ft | 454 kts | 207° |
| 2026-04-23 12:42 | 39.44482 | 16.34290 | 36080 ft | 454 kts | 207° |
| 2026-04-23 12:42 | 39.38611 | 16.31237 | 36074 ft | 454 kts | 207° |
| 2026-04-23 12:43 | 39.32789 | 16.28206 | 36082 ft | 454 kts | 207° |
| 2026-04-23 12:43 | 39.26919 | 16.25164 | 36070 ft | 454 kts | 207° |
| 2026-04-23 12:44 | 39.21057 | 16.22141 | 36073 ft | 453 kts | 207° |
| 2026-04-23 12:44 | 39.15195 | 16.19115 | 36075 ft | 453 kts | 207° |
| 2026-04-23 12:45 | 39.09344 | 16.16097 | 36062 ft | 452 kts | 208° |
| 2026-04-23 12:45 | 39.03511 | 16.13101 | 36071 ft | 451 kts | 208° |
| 2026-04-23 12:46 | 38.97687 | 16.10104 | 36071 ft | 450 kts | 208° |
| 2026-04-23 12:46 | 38.91874 | 16.07120 | 36072 ft | 450 kts | 208° |
| 2026-04-23 12:47 | 38.86063 | 16.04151 | 36061 ft | 449 kts | 208° |
| 2026-04-23 12:47 | 38.80279 | 16.01204 | 36083 ft | 449 kts | 208° |
| 2026-04-23 12:48 | 38.74472 | 15.98244 | 36073 ft | 449 kts | 208° |
| 2026-04-23 12:48 | 38.68666 | 15.95290 | 36049 ft | 449 kts | 209° |
| 2026-04-23 12:49 | 38.62854 | 15.92333 | 36077 ft | 448 kts | 209° |
| 2026-04-23 12:49 | 38.57060 | 15.89383 | 36084 ft | 447 kts | 209° |
| 2026-04-23 12:50 | 38.51271 | 15.86456 | 36088 ft | 447 kts | 209° |
| 2026-04-23 12:50 | 38.45477 | 15.83533 | 36074 ft | 447 kts | 210° |
| 2026-04-23 12:51 | 38.39701 | 15.80620 | 36094 ft | 446 kts | 210° |
| 2026-04-23 12:51 | 38.33934 | 15.77711 | 36102 ft | 445 kts | 210° |
| 2026-04-23 12:52 | 38.28214 | 15.74835 | 36100 ft | 445 kts | 210° |
| 2026-04-23 12:52 | 38.22458 | 15.71941 | 36091 ft | 444 kts | 210° |
| 2026-04-23 12:53 | 38.16721 | 15.69062 | 36100 ft | 443 kts | 210° |
| 2026-04-23 12:53 | 38.10979 | 15.66190 | 36101 ft | 443 kts | 210° |
| 2026-04-23 12:54 | 38.05417 | 15.63006 | 36049 ft | 434 kts | 217° |
| 2026-04-23 12:54 | 38.00110 | 15.59351 | 36066 ft | 434 kts | 217° |
| 2026-04-23 12:55 | 37.94800 | 15.55704 | 36092 ft | 434 kts | 217° |
| 2026-04-23 12:55 | 37.89479 | 15.52062 | 36096 ft | 434 kts | 217° |
| 2026-04-23 12:56 | 37.84158 | 15.48427 | 36076 ft | 434 kts | 217° |
| 2026-04-23 12:56 | 37.81509 | 15.46618 | 35885 ft | 432 kts | 217° |
| 2026-04-23 12:56 | 37.78877 | 15.44828 | 35484 ft | 427 kts | 217° |
| 2026-04-23 12:57 | 37.76268 | 15.43058 | 35094 ft | 423 kts | 218° |
| 2026-04-23 12:57 | 37.73721 | 15.41330 | 34714 ft | 419 kts | 218° |
| 2026-04-23 12:57 | 37.71160 | 15.39591 | 34333 ft | 415 kts | 218° |
| 2026-04-23 12:57 | 37.68593 | 15.37847 | 33924 ft | 411 kts | 218° |
| 2026-04-23 12:58 | 37.66085 | 15.36141 | 33469 ft | 408 kts | 218° |
| 2026-04-23 12:58 | 37.63633 | 15.34472 | 32973 ft | 404 kts | 218° |
| 2026-04-23 12:58 | 37.61165 | 15.32798 | 32514 ft | 402 kts | 218° |
| 2026-04-23 12:58 | 37.58706 | 15.31134 | 32070 ft | 399 kts | 218° |
| 2026-04-23 12:59 | 37.56268 | 15.29485 | 31638 ft | 396 kts | 218° |
| 2026-04-23 12:59 | 37.53850 | 15.27846 | 31193 ft | 393 kts | 218° |
| 2026-04-23 12:59 | 37.51447 | 15.26215 | 30761 ft | 391 kts | 218° |
| 2026-04-23 12:59 | 37.49057 | 15.24595 | 30363 ft | 389 kts | 218° |
| 2026-04-23 13:00 | 37.46678 | 15.22986 | 29932 ft | 386 kts | 219° |
| 2026-04-23 13:00 | 37.44323 | 15.21395 | 29487 ft | 383 kts | 218° |
| 2026-04-23 13:00 | 37.41977 | 15.19816 | 29055 ft | 380 kts | 218° |
| 2026-04-23 13:00 | 37.39652 | 15.18254 | 28639 ft | 377 kts | 218° |
| 2026-04-23 13:01 | 37.37341 | 15.16704 | 28239 ft | 375 kts | 218° |
| 2026-04-23 13:01 | 37.35046 | 15.15165 | 27841 ft | 372 kts | 218° |
| 2026-04-23 13:01 | 37.32772 | 15.13639 | 27430 ft | 369 kts | 218° |
| 2026-04-23 13:01 | 37.30520 | 15.12123 | 27036 ft | 366 kts | 218° |
| 2026-04-23 13:02 | 37.28311 | 15.10633 | 26641 ft | 363 kts | 218° |
| 2026-04-23 13:02 | 37.26092 | 15.09141 | 26254 ft | 361 kts | 218° |
| 2026-04-23 13:02 | 37.23887 | 15.07662 | 25885 ft | 358 kts | 218° |
| 2026-04-23 13:02 | 37.21692 | 15.06190 | 25509 ft | 356 kts | 217° |
| 2026-04-23 13:03 | 37.19510 | 15.04728 | 25145 ft | 354 kts | 217° |
| 2026-04-23 13:03 | 37.17345 | 15.03279 | 24769 ft | 352 kts | 217° |
| 2026-04-23 13:03 | 37.15190 | 15.01839 | 24388 ft | 350 kts | 217° |
| 2026-04-23 13:03 | 37.13049 | 15.00412 | 24016 ft | 347 kts | 217° |
| 2026-04-23 13:04 | 37.10923 | 14.98993 | 23634 ft | 345 kts | 217° |
| 2026-04-23 13:04 | 37.08813 | 14.97588 | 23207 ft | 343 kts | 217° |
| 2026-04-23 13:04 | 37.06716 | 14.96189 | 22774 ft | 341 kts | 217° |
| 2026-04-23 13:04 | 37.04624 | 14.94791 | 22341 ft | 338 kts | 217° |
| 2026-04-23 13:05 | 37.02551 | 14.93407 | 21911 ft | 336 kts | 217° |
| 2026-04-23 13:05 | 37.00489 | 14.92031 | 21452 ft | 335 kts | 217° |
| 2026-04-23 13:05 | 36.98432 | 14.90662 | 20999 ft | 334 kts | 216° |
| 2026-04-23 13:05 | 36.96382 | 14.89298 | 20581 ft | 333 kts | 216° |
| 2026-04-23 13:06 | 36.92305 | 14.86590 | 19782 ft | 330 kts | 216° |
| 2026-04-23 13:06 | 36.90284 | 14.85247 | 19398 ft | 328 kts | 216° |
| 2026-04-23 13:06 | 36.88275 | 14.83912 | 19024 ft | 327 kts | 216° |
| 2026-04-23 13:07 | 36.86279 | 14.82586 | 18686 ft | 325 kts | 216° |
| 2026-04-23 13:07 | 36.84280 | 14.81260 | 18402 ft | 324 kts | 216° |
| 2026-04-23 13:07 | 36.82292 | 14.79943 | 18033 ft | 323 kts | 216° |
| 2026-04-23 13:07 | 36.80312 | 14.78634 | 17629 ft | 321 kts | 216° |
| 2026-04-23 13:08 | 36.78343 | 14.77335 | 17231 ft | 319 kts | 216° |
| 2026-04-23 13:08 | 36.76386 | 14.76045 | 16878 ft | 316 kts | 216° |
| 2026-04-23 13:08 | 36.74439 | 14.74763 | 16508 ft | 315 kts | 216° |
| 2026-04-23 13:08 | 36.72536 | 14.73507 | 16151 ft | 313 kts | 216° |
| 2026-04-23 13:09 | 36.70614 | 14.72239 | 15789 ft | 312 kts | 216° |
| 2026-04-23 13:09 | 36.68699 | 14.70976 | 15432 ft | 310 kts | 216° |
| 2026-04-23 13:09 | 36.66798 | 14.69719 | 15086 ft | 309 kts | 216° |
| 2026-04-23 13:09 | 36.64901 | 14.68466 | 14751 ft | 308 kts | 216° |
| 2026-04-23 13:10 | 36.63010 | 14.67222 | 14406 ft | 307 kts | 216° |
| 2026-04-23 13:10 | 36.61761 | 14.66401 | 14184 ft | 306 kts | 216° |
| 2026-04-23 13:10 | 36.59884 | 14.65168 | 13844 ft | 304 kts | 216° |
| 2026-04-23 13:10 | 36.58018 | 14.63940 | 13461 ft | 303 kts | 216° |
| 2026-04-23 13:11 | 36.56154 | 14.62714 | 13068 ft | 302 kts | 215° |
| 2026-04-23 13:11 | 36.54302 | 14.61499 | 12718 ft | 300 kts | 215° |
| 2026-04-23 13:11 | 36.52456 | 14.60288 | 12364 ft | 299 kts | 215° |
| 2026-04-23 13:11 | 36.50617 | 14.59084 | 12013 ft | 298 kts | 215° |
| 2026-04-23 13:12 | 36.48781 | 14.57890 | 11655 ft | 298 kts | 214° |
| 2026-04-23 13:12 | 36.46937 | 14.56719 | 11301 ft | 297 kts | 214° |
| 2026-04-23 13:12 | 36.45097 | 14.55560 | 10949 ft | 297 kts | 214° |
| 2026-04-23 13:12 | 36.43257 | 14.54405 | 10604 ft | 296 kts | 214° |
| 2026-04-23 13:13 | 36.41417 | 14.53251 | 10277 ft | 296 kts | 214° |
| 2026-04-23 13:13 | 36.39582 | 14.52098 | 9958 ft | 295 kts | 214° |
| 2026-04-23 13:13 | 36.37756 | 14.50952 | 9597 ft | 294 kts | 213° |
| 2026-04-23 13:13 | 36.35958 | 14.49827 | 9284 ft | 293 kts | 213° |
| 2026-04-23 13:14 | 36.34140 | 14.48691 | 8961 ft | 291 kts | 213° |
| 2026-04-23 13:14 | 36.32338 | 14.47565 | 8655 ft | 289 kts | 213° |
| 2026-04-23 13:14 | 36.30546 | 14.46440 | 8341 ft | 288 kts | 212° |
| 2026-04-23 13:14 | 36.28764 | 14.45320 | 8007 ft | 287 kts | 212° |
| 2026-04-23 13:15 | 36.26986 | 14.44202 | 7669 ft | 286 kts | 212° |
| 2026-04-23 13:15 | 36.25211 | 14.43088 | 7341 ft | 286 kts | 211° |
| 2026-04-23 13:15 | 36.23439 | 14.41975 | 7007 ft | 285 kts | 211° |
| 2026-04-23 13:15 | 36.21671 | 14.40866 | 6688 ft | 284 kts | 211° |
| 2026-04-23 13:16 | 36.19905 | 14.39763 | 6368 ft | 283 kts | 210° |
| 2026-04-23 13:16 | 36.18166 | 14.38678 | 6052 ft | 282 kts | 210° |
| 2026-04-23 13:16 | 36.16413 | 14.37586 | 5718 ft | 281 kts | 210° |
| 2026-04-23 13:16 | 36.14666 | 14.36496 | 5382 ft | 281 kts | 210° |
| 2026-04-23 13:17 | 36.12923 | 14.35408 | 5081 ft | 280 kts | 210° |
| 2026-04-23 13:17 | 36.11189 | 14.34323 | 4746 ft | 279 kts | 209° |
| 2026-04-23 13:17 | 36.09461 | 14.33243 | 4476 ft | 276 kts | 208° |
| 2026-04-23 13:17 | 36.07777 | 14.32192 | 4342 ft | 267 kts | 208° |
| 2026-04-23 13:18 | 36.06141 | 14.31173 | 4213 ft | 259 kts | 208° |
| 2026-04-23 13:18 | 36.04557 | 14.30186 | 4082 ft | 252 kts | 209° |
| 2026-04-23 13:18 | 36.03007 | 14.29250 | 3949 ft | 244 kts | 202° |
| 2026-04-23 13:18 | 36.01370 | 14.29066 | 3831 ft | 235 kts | 164° |
| 2026-04-23 13:19 | 36.00002 | 14.29997 | 3665 ft | 222 kts | 133° |
| 2026-04-23 13:19 | 35.98941 | 14.31313 | 3478 ft | 216 kts | 131° |
| 2026-04-23 13:19 | 35.97911 | 14.32619 | 3344 ft | 208 kts | 131° |
| 2026-04-23 13:19 | 35.96904 | 14.33880 | 3217 ft | 204 kts | 132° |
| 2026-04-23 13:20 | 35.95904 | 14.35127 | 3085 ft | 204 kts | 131° |
| 2026-04-23 13:20 | 35.94903 | 14.36374 | 2850 ft | 204 kts | 132° |
| 2026-04-23 13:20 | 35.93913 | 14.37605 | 2586 ft | 199 kts | 132° |
| 2026-04-23 13:20 | 35.92954 | 14.38798 | 2334 ft | 193 kts | 130° |
| 2026-04-23 13:21 | 35.92026 | 14.39951 | 2069 ft | 185 kts | 130° |
| 2026-04-23 13:21 | 35.91146 | 14.41043 | 1843 ft | 173 kts | 129° |
| 2026-04-23 13:21 | 35.90325 | 14.42062 | 1617 ft | 159 kts | 128° |
| 2026-04-23 13:21 | 35.89591 | 14.42971 | 1416 ft | 144 kts | 128° |
| 2026-04-23 13:22 | 35.88904 | 14.43825 | 1204 ft | 136 kts | 129° |
| 2026-04-23 13:22 | 35.88254 | 14.44634 | 1024 ft | 131 kts | 128° |
| 2026-04-23 13:22 | 35.87614 | 14.45430 | 851 ft | 130 kts | 127° |
| 2026-04-23 13:22 | 35.86986 | 14.46211 | 681 ft | 131 kts | 128° |
| 2026-04-23 13:23 | 35.86342 | 14.47011 | 511 ft | 132 kts | 127° |
| 2026-04-23 13:23 | 35.85687 | 14.47823 | 328 ft | 134 kts | 129° |
| 2026-04-23 13:23 | 35.85064 | 14.48623 | 265 ft | 113 kts | 134° |
| 2026-04-23 13:23 | 35.84677 | 14.49092 | 259 ft | 53 kts | 135° |
| 2026-04-23 13:24 | 35.84476 | 14.49395 | 259 ft | 30 kts | 110° |
| 2026-04-23 13:24 | 35.84451 | 14.49535 | 258 ft | 14 kts | 78° |
| 2026-04-23 13:24 | 35.84532 | 14.49555 | 258 ft | 11 kts | 325° |
| 2026-04-23 13:24 | 35.84604 | 14.49555 | 257 ft | 13 kts | 40° |
| 2026-04-23 13:25 | 35.84686 | 14.49566 | 257 ft | 13 kts | 349° |
| 2026-04-23 13:25 | 35.84728 | 14.49621 | 257 ft | 8 kts | 69° |
| 2026-04-23 13:25 | 35.84728 | 14.49624 | 257 ft | 0 kts | 69° |